createdAt,value
2017-10-26T00:00:57.483Z,0.00
2017-10-26T00:01:57.489Z,0.00
2017-10-26T00:02:57.484Z,0.00
2017-10-26T00:03:57.485Z,0.00
2017-10-26T00:04:57.483Z,0.00
2017-10-26T00:05:57.484Z,0.00
2017-10-26T00:06:57.482Z,0.00
2017-10-26T00:07:57.484Z,0.00
2017-10-26T00:08:57.483Z,0.00
2017-10-26T00:09:57.482Z,0.00
2017-10-26T00:10:57.482Z,0.00
2017-10-26T00:11:57.481Z,0.00
2017-10-26T00:12:57.483Z,0.00
2017-10-26T00:13:57.482Z,0.00
2017-10-26T00:14:57.482Z,0.00
2017-10-26T00:15:57.483Z,0.00
2017-10-26T00:16:57.481Z,0.00
2017-10-26T00:17:57.484Z,0.00
2017-10-26T00:18:57.481Z,0.00
2017-10-26T00:19:57.479Z,0.00
2017-10-26T00:20:57.481Z,0.00
2017-10-26T00:21:57.479Z,0.00
2017-10-26T00:22:57.478Z,0.00
2017-10-26T00:23:57.480Z,0.00
2017-10-26T00:24:57.479Z,0.00
2017-10-26T00:25:57.479Z,0.00
2017-10-26T00:26:57.478Z,0.00
2017-10-26T00:27:57.477Z,0.00
2017-10-26T00:28:57.478Z,0.00
2017-10-26T00:29:57.477Z,0.00
2017-10-26T00:30:57.476Z,0.00
2017-10-26T00:31:57.476Z,0.00
2017-10-26T00:32:57.476Z,0.00
2017-10-26T00:33:57.476Z,0.00
2017-10-26T00:34:57.475Z,0.00
2017-10-26T00:35:57.474Z,0.00
2017-10-26T00:36:57.475Z,0.00
2017-10-26T00:37:57.475Z,0.00
2017-10-26T00:38:57.473Z,0.00
2017-10-26T00:39:57.474Z,0.00
2017-10-26T00:40:57.472Z,0.00
2017-10-26T00:41:57.474Z,0.00
2017-10-26T00:42:57.470Z,0.00
2017-10-26T00:43:57.472Z,0.00
2017-10-26T00:44:57.470Z,0.00
2017-10-26T00:45:57.474Z,0.00
2017-10-26T00:46:57.470Z,0.00
2017-10-26T00:47:57.477Z,0.00
2017-10-26T00:48:57.468Z,0.00
2017-10-26T00:49:57.469Z,0.00
2017-10-26T00:50:57.467Z,0.00
2017-10-26T00:51:57.466Z,0.00
2017-10-26T00:52:57.471Z,0.00
2017-10-26T00:53:57.466Z,0.00
2017-10-26T00:54:57.465Z,0.00
2017-10-26T00:55:57.465Z,0.00
2017-10-26T00:56:57.464Z,0.00
2017-10-26T00:57:57.464Z,0.00
2017-10-26T00:58:57.463Z,0.00
2017-10-26T00:59:57.462Z,0.00
2017-10-26T01:00:57.461Z,0.00
2017-10-26T01:01:57.461Z,0.00
2017-10-26T01:02:57.459Z,0.00
2017-10-26T01:03:57.459Z,0.00
2017-10-26T01:04:57.460Z,0.00
2017-10-26T01:05:57.459Z,0.00
2017-10-26T01:06:57.457Z,0.00
2017-10-26T01:07:57.457Z,0.00
2017-10-26T01:08:57.458Z,0.00
2017-10-26T01:09:57.462Z,0.00
2017-10-26T01:10:57.457Z,0.00
2017-10-26T01:11:57.459Z,0.00
2017-10-26T01:12:57.454Z,0.00
2017-10-26T01:13:57.454Z,0.00
2017-10-26T01:14:57.452Z,0.00
2017-10-26T01:15:57.452Z,0.00
2017-10-26T01:16:57.453Z,0.00
2017-10-26T01:17:57.451Z,0.00
2017-10-26T01:18:57.451Z,0.00
2017-10-26T01:19:57.451Z,0.00
2017-10-26T01:20:57.449Z,0.00
2017-10-26T01:21:57.448Z,0.00
2017-10-26T01:22:57.447Z,0.00
2017-10-26T01:23:57.447Z,0.00
2017-10-26T01:24:57.446Z,0.00
2017-10-26T01:25:57.446Z,0.00
2017-10-26T01:26:57.445Z,0.00
2017-10-26T01:27:57.445Z,0.00
2017-10-26T01:28:57.444Z,0.00
2017-10-26T01:29:57.459Z,0.00
2017-10-26T01:30:57.442Z,0.00
2017-10-26T01:31:57.443Z,0.00
2017-10-26T01:32:57.441Z,0.00
2017-10-26T01:33:57.440Z,0.00
2017-10-26T01:34:57.443Z,0.00
2017-10-26T01:35:57.439Z,0.00
2017-10-26T01:36:57.439Z,0.00
2017-10-26T01:37:57.439Z,0.00
2017-10-26T01:38:57.439Z,0.00
2017-10-26T01:39:57.436Z,0.00
2017-10-26T01:40:57.440Z,0.00
2017-10-26T01:41:57.436Z,0.00
2017-10-26T01:42:57.432Z,0.00
2017-10-26T01:43:57.433Z,0.00
2017-10-26T01:44:57.435Z,0.00
2017-10-26T01:45:57.436Z,0.00
2017-10-26T01:46:57.431Z,0.00
2017-10-26T01:47:57.433Z,0.00
2017-10-26T01:48:57.430Z,0.00
2017-10-26T01:49:57.430Z,0.00
2017-10-26T01:50:57.436Z,0.00
2017-10-26T01:51:57.428Z,0.00
2017-10-26T01:52:57.433Z,0.00
2017-10-26T01:53:57.429Z,0.00
2017-10-26T01:54:57.426Z,0.00
2017-10-26T01:55:57.425Z,0.00
2017-10-26T01:56:57.426Z,0.00
2017-10-26T01:57:57.425Z,0.00
2017-10-26T01:58:57.423Z,0.00
2017-10-26T01:59:57.423Z,0.00
2017-10-26T02:00:57.423Z,0.00
2017-10-26T02:01:57.422Z,0.00
2017-10-26T02:02:57.420Z,0.00
2017-10-26T02:03:57.419Z,0.00
2017-10-26T02:04:57.420Z,0.00
2017-10-26T02:05:57.419Z,0.00
2017-10-26T02:06:57.419Z,0.00
2017-10-26T02:07:57.417Z,0.00
2017-10-26T02:08:57.416Z,0.00
2017-10-26T02:09:57.416Z,0.00
2017-10-26T02:10:57.415Z,0.00
2017-10-26T02:11:57.414Z,0.00
2017-10-26T02:12:57.414Z,0.00
2017-10-26T02:13:57.419Z,0.00
2017-10-26T02:14:57.413Z,0.00
2017-10-26T02:15:57.413Z,0.00
2017-10-26T02:16:57.411Z,0.00
2017-10-26T02:17:57.410Z,0.00
2017-10-26T02:18:57.409Z,0.00
2017-10-26T02:19:57.409Z,0.00
2017-10-26T02:20:57.408Z,0.00
2017-10-26T02:21:57.408Z,0.00
2017-10-26T02:22:57.409Z,0.00
2017-10-26T02:23:57.409Z,0.00
2017-10-26T02:24:57.409Z,0.00
2017-10-26T02:25:57.404Z,0.00
2017-10-26T02:26:57.403Z,0.00
2017-10-26T02:27:57.403Z,0.00
2017-10-26T02:28:57.400Z,0.00
2017-10-26T02:29:57.403Z,0.00
2017-10-26T02:30:57.405Z,0.00
2017-10-26T02:31:57.400Z,0.00
2017-10-26T02:32:57.400Z,0.00
2017-10-26T02:33:57.399Z,0.00
2017-10-26T02:34:57.398Z,0.00
2017-10-26T02:35:57.397Z,0.00
2017-10-26T02:36:57.395Z,0.00
2017-10-26T02:37:57.395Z,0.00
2017-10-26T02:38:57.393Z,0.00
2017-10-26T02:39:57.393Z,0.00
2017-10-26T02:40:57.392Z,0.00
2017-10-26T02:41:57.392Z,0.00
2017-10-26T02:42:57.390Z,0.00
2017-10-26T02:43:57.391Z,0.00
2017-10-26T02:44:57.393Z,0.00
2017-10-26T02:45:57.389Z,0.00
2017-10-26T02:46:57.388Z,0.00
2017-10-26T02:47:57.387Z,0.00
2017-10-26T02:48:57.385Z,0.00
2017-10-26T02:49:57.386Z,0.00
2017-10-26T02:50:57.384Z,0.00
2017-10-26T02:51:57.383Z,0.00
2017-10-26T02:52:57.383Z,0.00
2017-10-26T02:53:57.382Z,0.00
2017-10-26T02:54:57.381Z,0.00
2017-10-26T02:55:57.379Z,0.00
2017-10-26T02:56:57.380Z,0.00
2017-10-26T02:57:57.378Z,0.00
2017-10-26T02:58:57.377Z,0.00
2017-10-26T02:59:57.676Z,0.00
2017-10-26T03:00:57.375Z,0.00
2017-10-26T03:01:57.375Z,0.00
2017-10-26T03:02:57.373Z,0.00
2017-10-26T03:03:57.373Z,0.00
2017-10-26T03:04:57.377Z,0.00
2017-10-26T03:05:57.372Z,0.00
2017-10-26T03:06:57.370Z,0.00
2017-10-26T03:07:57.370Z,0.00
2017-10-26T03:08:57.369Z,0.00
2017-10-26T03:09:57.374Z,0.00
2017-10-26T03:10:57.365Z,0.00
2017-10-26T03:11:57.369Z,0.00
2017-10-26T03:12:57.364Z,0.00
2017-10-26T03:13:57.375Z,0.00
2017-10-26T03:14:57.362Z,0.00
2017-10-26T03:15:57.365Z,0.00
2017-10-26T03:16:57.373Z,0.00
2017-10-26T03:17:57.359Z,0.00
2017-10-26T03:18:57.357Z,0.00
2017-10-26T03:19:57.357Z,0.00
2017-10-26T03:20:57.357Z,0.00
2017-10-26T03:21:57.355Z,0.00
2017-10-26T03:22:57.354Z,0.00
2017-10-26T03:23:57.352Z,0.00
2017-10-26T03:24:57.352Z,0.00
2017-10-26T03:25:57.351Z,0.00
2017-10-26T03:26:57.351Z,0.00
2017-10-26T03:27:57.348Z,0.00
2017-10-26T03:28:57.347Z,0.00
2017-10-26T03:29:57.346Z,0.00
2017-10-26T03:30:57.345Z,0.00
2017-10-26T03:31:57.344Z,0.00
2017-10-26T03:32:57.343Z,0.00
2017-10-26T03:33:57.341Z,0.00
2017-10-26T03:34:57.341Z,0.00
2017-10-26T03:35:57.339Z,0.00
2017-10-26T03:36:57.340Z,0.00
2017-10-26T03:37:57.338Z,0.00
2017-10-26T03:38:57.337Z,0.00
2017-10-26T03:39:57.335Z,0.00
2017-10-26T03:40:57.333Z,0.00
2017-10-26T03:41:57.333Z,0.00
2017-10-26T03:42:57.331Z,0.00
2017-10-26T03:43:57.329Z,0.00
2017-10-26T03:44:57.329Z,0.00
2017-10-26T03:45:57.335Z,0.00
2017-10-26T03:46:57.327Z,0.00
2017-10-26T03:47:57.325Z,0.00
2017-10-26T03:48:57.329Z,0.00
2017-10-26T03:49:57.323Z,0.00
2017-10-26T03:50:57.322Z,0.00
2017-10-26T03:51:57.321Z,0.00
2017-10-26T03:52:57.321Z,0.00
2017-10-26T03:53:57.318Z,0.00
2017-10-26T03:54:57.316Z,0.00
2017-10-26T03:55:57.317Z,0.00
2017-10-26T03:56:57.319Z,0.00
2017-10-26T03:57:57.315Z,0.00
2017-10-26T03:58:57.312Z,0.00
2017-10-26T03:59:57.317Z,0.00
2017-10-26T04:00:57.313Z,0.00
2017-10-26T04:01:57.309Z,0.00
2017-10-26T04:02:57.310Z,0.00
2017-10-26T04:03:57.306Z,0.00
2017-10-26T04:04:57.306Z,0.00
2017-10-26T04:05:57.305Z,0.00
2017-10-26T04:06:57.304Z,0.00
2017-10-26T04:07:57.303Z,0.00
2017-10-26T04:08:57.301Z,0.00
2017-10-26T04:09:57.301Z,0.00
2017-10-26T04:10:57.300Z,0.00
2017-10-26T04:11:57.299Z,0.00
2017-10-26T04:12:57.299Z,0.00
2017-10-26T04:13:57.296Z,0.00
2017-10-26T04:14:57.296Z,0.00
2017-10-26T04:15:57.294Z,0.00
2017-10-26T04:16:57.294Z,0.00
2017-10-26T04:17:57.292Z,0.00
2017-10-26T04:18:57.291Z,0.00
2017-10-26T04:19:57.291Z,0.00
2017-10-26T04:20:57.289Z,0.00
2017-10-26T04:21:57.289Z,0.00
2017-10-26T04:22:57.287Z,0.00
2017-10-26T04:23:57.285Z,0.00
2017-10-26T04:24:57.283Z,0.00
2017-10-26T04:25:57.283Z,0.00
2017-10-26T04:26:57.283Z,0.00
2017-10-26T04:27:57.280Z,0.00
2017-10-26T04:28:57.279Z,0.00
2017-10-26T04:29:57.278Z,0.00
2017-10-26T04:30:57.277Z,0.00
2017-10-26T04:31:57.279Z,0.00
2017-10-26T04:32:57.273Z,0.00
2017-10-26T04:33:57.276Z,0.00
2017-10-26T04:34:57.270Z,0.00
2017-10-26T04:35:57.270Z,0.00
2017-10-26T04:36:57.270Z,0.00
2017-10-26T04:37:57.276Z,0.00
2017-10-26T04:38:57.266Z,0.00
2017-10-26T04:39:57.264Z,0.00
2017-10-26T04:40:57.263Z,0.00
2017-10-26T04:41:57.267Z,0.00
2017-10-26T04:42:57.259Z,0.00
2017-10-26T04:43:57.260Z,0.00
2017-10-26T04:44:57.258Z,0.00
2017-10-26T04:45:57.256Z,0.00
2017-10-26T04:46:57.256Z,0.00
2017-10-26T04:47:57.255Z,0.00
2017-10-26T04:48:57.254Z,0.00
2017-10-26T04:49:57.252Z,0.00
2017-10-26T04:50:57.249Z,0.00
2017-10-26T04:51:57.248Z,0.00
2017-10-26T04:52:57.252Z,0.00
2017-10-26T04:53:57.247Z,0.00
2017-10-26T04:54:57.247Z,0.00
2017-10-26T04:55:57.243Z,0.00
2017-10-26T04:56:57.243Z,0.00
2017-10-26T04:57:57.241Z,0.00
2017-10-26T04:58:57.239Z,0.00
2017-10-26T04:59:57.237Z,0.00
2017-10-26T05:00:57.237Z,0.00
2017-10-26T05:01:57.240Z,0.00
2017-10-26T05:02:57.235Z,0.00
2017-10-26T05:03:57.234Z,0.00
2017-10-26T05:04:57.233Z,0.00
2017-10-26T05:05:57.231Z,0.00
2017-10-26T05:06:57.230Z,0.00
2017-10-26T05:07:57.228Z,0.00
2017-10-26T05:08:57.230Z,0.00
2017-10-26T05:09:57.225Z,0.00
2017-10-26T05:10:57.224Z,0.00
2017-10-26T05:11:57.223Z,0.00
2017-10-26T05:12:57.221Z,0.00
2017-10-26T05:13:57.219Z,0.00
2017-10-26T05:14:57.218Z,0.00
2017-10-26T05:15:57.217Z,0.00
2017-10-26T05:16:57.217Z,0.00
2017-10-26T05:17:57.216Z,0.00
2017-10-26T05:18:57.213Z,0.00
2017-10-26T05:19:57.211Z,0.00
2017-10-26T05:20:57.209Z,0.00
2017-10-26T05:21:57.215Z,0.00
2017-10-26T05:22:57.209Z,0.00
2017-10-26T05:23:57.206Z,0.00
2017-10-26T05:24:57.206Z,0.00
2017-10-26T05:25:57.204Z,0.00
2017-10-26T05:26:57.213Z,0.00
2017-10-26T05:27:57.200Z,0.00
2017-10-26T05:28:57.199Z,0.00
2017-10-26T05:29:57.200Z,0.00
2017-10-26T05:30:57.196Z,0.00
2017-10-26T05:31:57.195Z,0.00
2017-10-26T05:32:57.194Z,0.00
2017-10-26T05:33:57.193Z,0.00
2017-10-26T05:34:57.191Z,0.00
2017-10-26T05:35:57.190Z,0.00
2017-10-26T05:36:57.190Z,0.00
2017-10-26T05:37:57.187Z,0.00
2017-10-26T05:38:57.185Z,0.00
2017-10-26T05:39:57.185Z,0.00
2017-10-26T05:40:57.182Z,0.00
2017-10-26T05:41:57.184Z,0.00
2017-10-26T05:42:57.180Z,0.00
2017-10-26T05:43:57.185Z,0.00
2017-10-26T05:44:57.180Z,0.00
2017-10-26T05:45:57.177Z,0.00
2017-10-26T05:46:57.174Z,0.00
2017-10-26T05:47:57.173Z,5.63
2017-10-26T05:48:57.173Z,5.63
2017-10-26T05:49:57.171Z,5.63
2017-10-26T05:50:57.170Z,5.63
2017-10-26T05:51:57.170Z,5.63
2017-10-26T05:52:57.168Z,5.63
2017-10-26T05:53:57.167Z,5.63
2017-10-26T05:54:57.164Z,11.25
2017-10-26T05:55:57.165Z,11.25
2017-10-26T05:56:57.164Z,11.25
2017-10-26T05:57:57.163Z,11.25
2017-10-26T05:58:57.160Z,16.88
2017-10-26T05:59:57.159Z,16.88
2017-10-26T06:00:57.158Z,22.50
2017-10-26T06:01:57.157Z,22.50
2017-10-26T06:02:57.154Z,22.50
2017-10-26T06:03:57.155Z,28.13
2017-10-26T06:04:57.153Z,28.13
2017-10-26T06:05:57.152Z,33.75
2017-10-26T06:06:57.150Z,33.75
2017-10-26T06:07:57.150Z,39.38
2017-10-26T06:08:57.148Z,39.38
2017-10-26T06:09:57.147Z,39.38
2017-10-26T06:10:57.145Z,45.00
2017-10-26T06:11:57.145Z,45.00
2017-10-26T06:12:57.144Z,50.63
2017-10-26T06:13:57.144Z,50.63
2017-10-26T06:14:57.144Z,56.25
2017-10-26T06:15:57.140Z,56.25
2017-10-26T06:16:57.139Z,56.25
2017-10-26T06:17:57.140Z,61.88
2017-10-26T06:18:57.137Z,73.13
2017-10-26T06:19:57.135Z,78.75
2017-10-26T06:20:57.136Z,73.13
2017-10-26T06:21:57.135Z,78.75
2017-10-26T06:22:57.138Z,90.00
2017-10-26T06:23:57.133Z,78.75
2017-10-26T06:24:57.132Z,78.75
2017-10-26T06:25:57.132Z,78.75
2017-10-26T06:26:57.129Z,78.75
2017-10-26T06:27:57.129Z,84.38
2017-10-26T06:28:57.130Z,84.38
2017-10-26T06:29:57.130Z,90.00
2017-10-26T06:30:57.129Z,90.00
2017-10-26T06:31:57.127Z,95.63
2017-10-26T06:32:57.126Z,95.63
2017-10-26T06:33:57.126Z,101.25
2017-10-26T06:34:57.125Z,101.25
2017-10-26T06:35:57.124Z,106.88
2017-10-26T06:36:57.124Z,112.50
2017-10-26T06:37:57.124Z,112.50
2017-10-26T06:38:57.124Z,112.50
2017-10-26T06:39:57.123Z,118.13
2017-10-26T06:40:57.122Z,129.38
2017-10-26T06:41:57.121Z,123.75
2017-10-26T06:42:57.120Z,140.63
2017-10-26T06:43:57.121Z,140.63
2017-10-26T06:44:57.120Z,129.38
2017-10-26T06:45:57.121Z,123.75
2017-10-26T06:46:57.119Z,123.75
2017-10-26T06:47:57.119Z,135.00
2017-10-26T06:48:57.119Z,140.63
2017-10-26T06:49:57.118Z,140.63
2017-10-26T06:50:57.119Z,135.00
2017-10-26T06:51:57.118Z,135.00
2017-10-26T06:52:57.117Z,140.63
2017-10-26T06:53:57.118Z,146.25
2017-10-26T06:54:57.116Z,157.50
2017-10-26T06:55:57.117Z,163.13
2017-10-26T06:56:57.116Z,168.75
2017-10-26T06:57:57.116Z,180.00
2017-10-26T06:58:57.115Z,219.38
2017-10-26T06:59:57.117Z,258.75
2017-10-26T07:00:57.115Z,281.25
2017-10-26T07:01:57.118Z,247.50
2017-10-26T07:02:57.116Z,258.75
2017-10-26T07:03:57.120Z,258.75
2017-10-26T07:04:57.117Z,253.13
2017-10-26T07:05:57.116Z,303.75
2017-10-26T07:06:57.116Z,523.13
2017-10-26T07:07:57.116Z,770.63
2017-10-26T07:08:57.118Z,793.13
2017-10-26T07:09:57.119Z,776.25
2017-10-26T07:10:57.129Z,517.50
2017-10-26T07:11:57.118Z,275.63
2017-10-26T07:12:57.121Z,258.75
2017-10-26T07:13:57.124Z,281.25
2017-10-26T07:14:57.122Z,421.88
2017-10-26T07:15:57.123Z,421.88
2017-10-26T07:16:57.126Z,450.00
2017-10-26T07:17:57.127Z,990.00
2017-10-26T07:18:57.128Z,1130.63
2017-10-26T07:19:57.130Z,1029.38
2017-10-26T07:20:57.133Z,894.38
2017-10-26T07:21:57.135Z,742.50
2017-10-26T07:22:57.135Z,528.75
2017-10-26T07:23:57.139Z,472.50
2017-10-26T07:24:57.142Z,517.50
2017-10-26T07:25:57.144Z,545.63
2017-10-26T07:26:57.147Z,500.63
2017-10-26T07:27:57.149Z,556.88
2017-10-26T07:28:57.155Z,686.25
2017-10-26T07:29:57.157Z,736.88
2017-10-26T07:30:57.160Z,793.13
2017-10-26T07:31:57.163Z,843.75
2017-10-26T07:32:57.166Z,855.00
2017-10-26T07:33:57.168Z,691.88
2017-10-26T07:34:57.171Z,517.50
2017-10-26T07:35:57.176Z,461.25
2017-10-26T07:36:57.179Z,433.13
2017-10-26T07:37:57.182Z,433.13
2017-10-26T07:38:57.184Z,343.13
2017-10-26T07:39:57.188Z,309.38
2017-10-26T07:40:57.192Z,343.13
2017-10-26T07:41:57.196Z,478.13
2017-10-26T07:42:57.198Z,607.50
2017-10-26T07:43:57.202Z,382.50
2017-10-26T07:44:57.208Z,511.88
2017-10-26T07:45:57.210Z,950.63
2017-10-26T07:46:57.215Z,1130.63
2017-10-26T07:47:57.218Z,1186.88
2017-10-26T07:48:57.223Z,1597.50
2017-10-26T07:49:57.226Z,1670.63
2017-10-26T07:50:57.228Z,1445.63
2017-10-26T07:51:57.235Z,1119.38
2017-10-26T07:52:57.238Z,933.75
2017-10-26T07:53:57.244Z,1035.00
2017-10-26T07:54:57.249Z,984.38
2017-10-26T07:55:57.255Z,781.88
2017-10-26T07:56:57.260Z,624.38
2017-10-26T07:57:57.266Z,399.38
2017-10-26T07:58:57.275Z,348.75
2017-10-26T07:59:57.278Z,393.75
2017-10-26T08:00:57.285Z,427.50
2017-10-26T08:01:57.294Z,466.88
2017-10-26T08:02:57.295Z,354.38
2017-10-26T08:03:57.306Z,382.50
2017-10-26T08:04:57.308Z,534.38
2017-10-26T08:05:57.314Z,416.25
2017-10-26T08:06:57.315Z,270.00
2017-10-26T08:07:57.322Z,236.25
2017-10-26T08:08:57.327Z,230.63
2017-10-26T08:09:57.332Z,241.88
2017-10-26T08:10:57.336Z,337.50
2017-10-26T08:11:57.342Z,618.75
2017-10-26T08:12:57.346Z,804.38
2017-10-26T08:13:57.352Z,703.13
2017-10-26T08:14:57.355Z,714.38
2017-10-26T08:15:57.360Z,826.88
2017-10-26T08:16:57.366Z,832.50
2017-10-26T08:17:57.369Z,652.50
2017-10-26T08:18:57.374Z,579.38
2017-10-26T08:19:57.378Z,624.38
2017-10-26T08:20:57.397Z,787.50
2017-10-26T08:21:57.390Z,720.00
2017-10-26T08:22:57.395Z,916.88
2017-10-26T08:23:57.400Z,849.38
2017-10-26T08:24:57.405Z,1006.88
2017-10-26T08:25:57.410Z,888.75
2017-10-26T08:26:57.415Z,630.00
2017-10-26T08:27:57.420Z,618.75
2017-10-26T08:28:57.427Z,607.50
2017-10-26T08:29:57.431Z,517.50
2017-10-26T08:30:57.436Z,382.50
2017-10-26T08:31:57.442Z,371.25
2017-10-26T08:32:57.447Z,421.88
2017-10-26T08:33:57.453Z,433.13
2017-10-26T08:34:57.458Z,450.00
2017-10-26T08:35:57.463Z,354.38
2017-10-26T08:36:57.468Z,315.00
2017-10-26T08:37:57.473Z,315.00
2017-10-26T08:38:57.478Z,331.88
2017-10-26T08:39:57.483Z,326.25
2017-10-26T08:40:57.490Z,343.13
2017-10-26T08:41:57.495Z,331.88
2017-10-26T08:42:57.500Z,315.00
2017-10-26T08:43:57.503Z,331.88
2017-10-26T08:44:57.508Z,337.50
2017-10-26T08:45:57.513Z,331.88
2017-10-26T08:46:57.518Z,326.25
2017-10-26T08:47:57.539Z,315.00
2017-10-26T08:48:57.528Z,264.38
2017-10-26T08:49:57.531Z,275.63
2017-10-26T08:50:57.537Z,303.75
2017-10-26T08:51:57.541Z,455.63
2017-10-26T08:52:57.547Z,489.38
2017-10-26T08:53:57.551Z,393.75
2017-10-26T08:54:57.556Z,450.00
2017-10-26T08:55:57.560Z,331.88
2017-10-26T08:56:57.565Z,354.38
2017-10-26T08:57:57.570Z,348.75
2017-10-26T08:58:57.574Z,399.38
2017-10-26T08:59:57.578Z,697.50
2017-10-26T09:00:57.584Z,871.88
2017-10-26T09:01:57.589Z,1012.50
2017-10-26T09:02:57.603Z,877.50
2017-10-26T09:03:57.601Z,658.13
2017-10-26T09:04:57.607Z,500.63
2017-10-26T09:05:57.611Z,630.00
2017-10-26T09:06:57.616Z,410.63
2017-10-26T09:07:57.623Z,630.00
2017-10-26T09:08:57.628Z,804.38
2017-10-26T09:09:57.636Z,1057.50
2017-10-26T09:10:57.641Z,1068.75
2017-10-26T09:11:57.647Z,810.00
2017-10-26T09:12:57.654Z,736.88
2017-10-26T09:13:57.661Z,562.50
2017-10-26T09:14:57.667Z,562.50
2017-10-26T09:15:57.677Z,652.50
2017-10-26T09:16:57.680Z,781.88
2017-10-26T09:17:57.688Z,894.38
2017-10-26T09:18:57.694Z,798.75
2017-10-26T09:19:57.699Z,753.75
2017-10-26T09:20:57.707Z,928.13
2017-10-26T09:21:57.714Z,1029.38
2017-10-26T09:22:57.721Z,860.63
2017-10-26T09:23:57.726Z,933.75
2017-10-26T09:24:57.734Z,945.00
2017-10-26T09:25:57.741Z,978.75
2017-10-26T09:26:57.748Z,1192.50
2017-10-26T09:27:57.755Z,826.88
2017-10-26T09:28:57.763Z,798.75
2017-10-26T09:29:57.772Z,1147.50
2017-10-26T09:30:57.776Z,1175.63
2017-10-26T09:31:57.785Z,1198.13
2017-10-26T09:32:57.793Z,1203.75
2017-10-26T09:33:57.801Z,967.50
2017-10-26T09:34:57.808Z,798.75
2017-10-26T09:35:57.816Z,708.75
2017-10-26T09:36:57.826Z,691.88
2017-10-26T09:37:57.834Z,686.25
2017-10-26T09:38:57.841Z,894.38
2017-10-26T09:39:57.850Z,1125.00
2017-10-26T09:40:57.858Z,1350.00
2017-10-26T09:41:57.867Z,1119.38
2017-10-26T09:42:57.874Z,1068.75
2017-10-26T09:43:57.882Z,1243.13
2017-10-26T09:44:57.891Z,1276.88
2017-10-26T09:45:57.899Z,1248.75
2017-10-26T09:46:57.908Z,1192.50
2017-10-26T09:47:57.917Z,1051.88
2017-10-26T09:48:57.925Z,1074.38
2017-10-26T09:49:57.934Z,905.63
2017-10-26T09:50:57.943Z,1164.38
2017-10-26T09:51:57.953Z,1248.75
2017-10-26T09:52:57.963Z,1254.38
2017-10-26T09:53:57.972Z,1096.88
2017-10-26T09:54:57.980Z,950.63
2017-10-26T09:55:57.989Z,900.00
2017-10-26T09:56:57.999Z,748.13
2017-10-26T09:57:58.008Z,1035.00
2017-10-26T09:58:58.017Z,1091.25
2017-10-26T09:59:58.026Z,1355.63
2017-10-26T10:00:58.036Z,1411.88
2017-10-26T10:01:58.045Z,1513.13
2017-10-26T10:02:58.054Z,1063.13
2017-10-26T10:03:58.064Z,945.00
2017-10-26T10:04:58.074Z,1378.13
2017-10-26T10:05:58.085Z,1417.50
2017-10-26T10:06:58.093Z,1535.63
2017-10-26T10:07:58.104Z,1501.88
2017-10-26T10:08:58.112Z,1372.50
2017-10-26T10:09:58.123Z,1170.00
2017-10-26T10:10:58.147Z,1068.75
2017-10-26T10:11:58.143Z,939.38
2017-10-26T10:12:58.154Z,1057.50
2017-10-26T10:13:58.165Z,911.25
2017-10-26T10:14:58.175Z,888.75
2017-10-26T10:15:58.187Z,1113.75
2017-10-26T10:16:58.197Z,1209.38
2017-10-26T10:17:58.207Z,1338.75
2017-10-26T10:18:58.217Z,1389.38
2017-10-26T10:19:58.229Z,1383.75
2017-10-26T10:20:58.246Z,1423.13
2017-10-26T10:21:58.249Z,1406.25
2017-10-26T10:22:58.260Z,1327.50
2017-10-26T10:23:58.307Z,1299.38
2017-10-26T10:24:58.282Z,1164.38
2017-10-26T10:25:58.297Z,1023.75
2017-10-26T10:26:58.305Z,1125.00
2017-10-26T10:27:58.317Z,1181.25
2017-10-26T10:28:58.329Z,1271.25
2017-10-26T10:29:58.342Z,1293.75
2017-10-26T10:30:58.353Z,1164.38
2017-10-26T10:31:58.365Z,1158.75
2017-10-26T10:32:58.377Z,1113.75
2017-10-26T10:33:58.393Z,1136.25
2017-10-26T10:34:58.399Z,1226.25
2017-10-26T10:35:58.414Z,1119.38
2017-10-26T10:36:58.426Z,461.25
2017-10-26T10:37:58.438Z,781.88
2017-10-26T10:38:58.450Z,900.00
2017-10-26T10:39:58.462Z,956.25
2017-10-26T10:40:58.474Z,883.13
2017-10-26T10:41:58.489Z,900.00
2017-10-26T10:42:58.499Z,900.00
2017-10-26T10:43:58.512Z,849.38
2017-10-26T10:44:58.525Z,770.63
2017-10-26T10:45:58.536Z,776.25
2017-10-26T10:46:58.548Z,793.13
2017-10-26T10:47:58.561Z,686.25
2017-10-26T10:48:58.573Z,641.25
2017-10-26T10:49:58.596Z,511.88
2017-10-26T10:50:58.597Z,466.88
2017-10-26T10:51:58.608Z,579.38
2017-10-26T10:52:58.621Z,596.25
2017-10-26T10:53:58.635Z,579.38
2017-10-26T10:54:58.643Z,573.75
2017-10-26T10:55:58.653Z,579.38
2017-10-26T10:56:58.665Z,500.63
2017-10-26T10:57:58.677Z,579.38
2017-10-26T10:58:58.686Z,607.50
2017-10-26T10:59:58.697Z,663.75
2017-10-26T11:00:58.708Z,562.50
2017-10-26T11:01:58.719Z,528.75
2017-10-26T11:02:58.728Z,433.13
2017-10-26T11:03:58.741Z,601.88
2017-10-26T11:04:58.751Z,793.13
2017-10-26T11:05:58.762Z,753.75
2017-10-26T11:06:58.773Z,601.88
2017-10-26T11:07:58.783Z,371.25
2017-10-26T11:08:58.793Z,360.00
2017-10-26T11:09:58.804Z,534.38
2017-10-26T11:10:58.814Z,303.75
2017-10-26T11:11:58.825Z,326.25
2017-10-26T11:12:58.838Z,393.75
2017-10-26T11:13:58.847Z,495.00
2017-10-26T11:14:58.858Z,528.75
2017-10-26T11:15:58.869Z,596.25
2017-10-26T11:16:58.877Z,601.88
2017-10-26T11:17:58.888Z,506.25
2017-10-26T11:18:58.898Z,365.63
2017-10-26T11:19:58.909Z,230.63
2017-10-26T11:20:58.921Z,264.38
2017-10-26T11:21:58.931Z,326.25
2017-10-26T11:22:58.942Z,472.50
2017-10-26T11:23:58.956Z,489.38
2017-10-26T11:24:58.963Z,455.63
2017-10-26T11:25:58.974Z,433.13
2017-10-26T11:26:58.985Z,371.25
2017-10-26T11:27:58.994Z,455.63
2017-10-26T11:28:59.005Z,421.88
2017-10-26T11:29:59.017Z,393.75
2017-10-26T11:30:59.026Z,466.88
2017-10-26T11:31:59.040Z,483.75
2017-10-26T11:32:59.047Z,438.75
2017-10-26T11:33:59.058Z,472.50
2017-10-26T11:34:59.068Z,382.50
2017-10-26T11:35:59.077Z,286.88
2017-10-26T11:36:59.089Z,264.38
2017-10-26T11:37:59.100Z,270.00
2017-10-26T11:38:59.110Z,286.88
2017-10-26T11:39:59.121Z,247.50
2017-10-26T11:40:59.131Z,264.38
2017-10-26T11:41:59.142Z,303.75
2017-10-26T11:42:59.152Z,326.25
2017-10-26T11:43:59.163Z,286.88
2017-10-26T11:44:59.174Z,326.25
2017-10-26T11:45:59.184Z,348.75
2017-10-26T11:46:59.191Z,450.00
2017-10-26T11:47:59.202Z,545.63
2017-10-26T11:48:59.213Z,495.00
2017-10-26T11:49:59.221Z,489.38
2017-10-26T11:50:59.231Z,438.75
2017-10-26T11:51:59.241Z,421.88
2017-10-26T11:52:59.252Z,478.13
2017-10-26T11:53:59.262Z,500.63
2017-10-26T11:54:59.271Z,483.75
2017-10-26T11:55:59.281Z,472.50
2017-10-26T11:56:59.292Z,421.88
2017-10-26T11:57:59.304Z,455.63
2017-10-26T11:58:59.312Z,528.75
2017-10-26T11:59:59.322Z,500.63
2017-10-26T12:00:59.332Z,489.38
2017-10-26T12:01:59.343Z,511.88
2017-10-26T12:02:59.352Z,590.63
2017-10-26T12:03:59.362Z,568.13
2017-10-26T12:04:59.373Z,500.63
2017-10-26T12:05:59.385Z,438.75
2017-10-26T12:06:59.401Z,455.63
2017-10-26T12:07:59.406Z,534.38
2017-10-26T12:08:59.415Z,601.88
2017-10-26T12:09:59.434Z,534.38
2017-10-26T12:10:59.438Z,579.38
2017-10-26T12:11:59.448Z,573.75
2017-10-26T12:12:59.460Z,585.00
2017-10-26T12:13:59.470Z,511.88
2017-10-26T12:14:59.481Z,444.38
2017-10-26T12:15:59.492Z,466.88
2017-10-26T12:16:59.503Z,478.13
2017-10-26T12:17:59.513Z,500.63
2017-10-26T12:18:59.524Z,528.75
2017-10-26T12:19:59.535Z,630.00
2017-10-26T12:20:59.546Z,585.00
2017-10-26T12:21:59.558Z,523.13
2017-10-26T12:22:59.570Z,478.13
2017-10-26T12:23:59.580Z,562.50
2017-10-26T12:24:59.591Z,641.25
2017-10-26T12:25:59.609Z,641.25
2017-10-26T12:26:59.617Z,618.75
2017-10-26T12:27:59.625Z,630.00
2017-10-26T12:28:59.636Z,607.50
2017-10-26T12:29:59.650Z,562.50
2017-10-26T12:30:59.660Z,573.75
2017-10-26T12:31:59.672Z,573.75
2017-10-26T12:32:59.686Z,601.88
2017-10-26T12:33:59.695Z,601.88
2017-10-26T12:34:59.707Z,517.50
2017-10-26T12:35:59.720Z,444.38
2017-10-26T12:36:59.736Z,573.75
2017-10-26T12:37:59.753Z,596.25
2017-10-26T12:38:59.754Z,562.50
2017-10-26T12:39:59.765Z,500.63
2017-10-26T12:40:59.779Z,478.13
2017-10-26T12:41:59.789Z,455.63
2017-10-26T12:42:59.800Z,489.38
2017-10-26T12:43:59.812Z,506.25
2017-10-26T12:44:59.825Z,551.25
2017-10-26T12:45:59.836Z,607.50
2017-10-26T12:46:59.848Z,568.13
2017-10-26T12:47:59.860Z,585.00
2017-10-26T12:48:59.873Z,613.13
2017-10-26T12:49:59.885Z,635.63